Time;durP1;ratioP1;P1;durP2;ratioP2;P2;SDS_P1;SDS_P2;PMS_P1;PMS_P2;Temp;Humidity;BMP_temperature;BMP_pressure;BME280_temperature;BME280_humidity;BME280_pressure;Samples;Min_cycle;Max_cycle;Signal;HPM_P1;HPM_P2
2022/09/09 00:00:18;;;;;;;58.40;37.65;;;;;;;;;;4915219;29;20024;-73
2022/09/09 00:02:54;;;;;;;66.15;39.97;;;;;;;;;;4914870;29;20422;-73
2022/09/09 00:05:27;;;;;;;57.97;38.42;;;;;;;;;;4914992;29;20017;-73
2022/09/09 00:07:53;;;;;;;53.13;36.80;;;;;;;;;;4915010;29;20454;-72
2022/09/09 00:10:22;;;;;;;61.78;41.08;;;;;;;;;;4915228;29;20316;-75
2022/09/09 00:12:48;;;;;;;66.22;41.40;;;;;;;;;;4915279;29;20374;-73
2022/09/09 00:15:23;;;;;;;58.33;39.38;;;;;;;;;;4915349;29;20024;-73
2022/09/09 00:17:49;;;;;;;62.45;41.83;;;;;;;;;;4914646;28;20394;-72
2022/09/09 00:20:18;;;;;;;54.72;38.08;;;;;;;;;;4916069;29;20032;-74
2022/09/09 00:23:06;;;;;;;55.22;37.90;;;;;;;;;;4915679;29;20111;-73
2022/09/09 00:25:40;;;;;;;65.07;41.10;;;;;;;;;;4920489;28;20370;-73
2022/09/09 00:28:25;;;;;;;65.65;40.45;;;;;;;;;;4915089;29;20094;-73
2022/09/09 00:30:51;;;;;;;92.63;44.20;;;;;;;;;;4922118;29;20063;-72
2022/09/09 00:33:22;;;;;;;77.63;41.58;;;;;;;;;;4936820;29;20027;-71
2022/09/09 00:35:50;;;;;;;73.25;41.78;;;;;;;;;;4937080;29;20026;-71
2022/09/09 00:38:32;;;;;;;62.88;40.45;;;;;;;;;;4937121;29;20048;-71
2022/09/09 00:41:04;;;;;;;64.60;41.78;;;;;;;;;;4935523;29;20024;-71
2022/09/09 00:43:31;;;;;;;67.18;42.20;;;;;;;;;;4933337;28;20032;-72
2022/09/09 00:45:57;;;;;;;60.97;39.50;;;;;;;;;;4928267;29;20115;-72
2022/09/09 00:48:25;;;;;;;62.08;38.72;;;;;;;;;;4928476;29;20028;-72
2022/09/09 00:50:57;;;;;;;56.55;37.83;;;;;;;;;;4928786;29;20063;-71
2022/09/09 00:53:23;;;;;;;68.10;43.08;;;;;;;;;;5017252;28;20050;-71
2022/09/09 00:55:54;;;;;;;66.18;42.22;;;;;;;;;;4936633;29;20056;-72
2022/09/09 00:58:20;;;;;;;73.97;45.28;;;;;;;;;;4936124;29;20063;-72
2022/09/09 01:00:49;;;;;;;70.63;44.13;;;;;;;;;;4936736;29;20474;-71
2022/09/09 01:03:17;;;;;;;71.93;43.55;;;;;;;;;;4919824;29;20043;-72
2022/09/09 01:05:43;;;;;;;76.10;46.30;;;;;;;;;;4913518;29;20020;-73
2022/09/09 01:08:21;;;;;;;80.88;47.85;;;;;;;;;;4913835;29;20051;-74
2022/09/09 01:10:53;;;;;;;86.28;50.35;;;;;;;;;;4913970;29;20060;-73
2022/09/09 01:13:29;;;;;;;87.40;49.00;;;;;;;;;;4913792;29;20028;-72
2022/09/09 01:15:56;;;;;;;92.65;51.20;;;;;;;;;;4913532;29;20112;-72
2022/09/09 01:18:24;;;;;;;88.55;51.60;;;;;;;;;;4913887;29;20025;-71
2022/09/09 01:21:03;;;;;;;89.60;50.50;;;;;;;;;;4913534;29;20024;-73
2022/09/09 01:23:29;;;;;;;89.78;50.58;;;;;;;;;;4913208;29;20405;-71
2022/09/09 01:26:18;;;;;;;88.32;49.80;;;;;;;;;;4913345;29;20031;-73
2022/09/09 01:28:45;;;;;;;88.13;48.05;;;;;;;;;;4912296;29;20032;-73
2022/09/09 01:31:13;;;;;;;87.95;48.92;;;;;;;;;;4994589;28;20051;-73
2022/09/09 01:33:39;;;;;;;97.75;53.00;;;;;;;;;;4912610;29;20086;-72
2022/09/09 01:36:28;;;;;;;103.25;55.45;;;;;;;;;;4913163;29;20024;-72
2022/09/09 01:38:54;;;;;;;99.05;51.78;;;;;;;;;;4917919;28;20062;-71
2022/09/09 01:41:20;;;;;;;107.10;51.05;;;;;;;;;;4913496;29;20509;-71
2022/09/09 01:43:46;;;;;;;101.00;52.13;;;;;;;;;;4913359;28;20081;-71
2022/09/09 01:46:12;;;;;;;94.13;50.58;;;;;;;;;;4913142;29;20058;-73
2022/09/09 01:48:38;;;;;;;91.75;50.83;;;;;;;;;;4913276;29;20024;-71
2022/09/09 01:51:04;;;;;;;89.90;49.33;;;;;;;;;;4913057;29;20032;-73
2022/09/09 01:53:30;;;;;;;83.43;48.70;;;;;;;;;;4913214;29;20024;-72
2022/09/09 01:56:02;;;;;;;94.53;50.38;;;;;;;;;;4913014;29;20137;-71
2022/09/09 01:58:35;;;;;;;92.90;49.75;;;;;;;;;;4913024;29;20470;-73
2022/09/09 02:01:12;;;;;;;88.70;48.45;;;;;;;;;;4913070;29;20032;-74
2022/09/09 02:03:39;;;;;;;91.65;50.55;;;;;;;;;;4913135;29;20043;-73
2022/09/09 02:06:23;;;;;;;93.60;49.78;;;;;;;;;;4912688;29;20494;-72
2022/09/09 02:08:50;;;;;;;80.03;46.22;;;;;;;;;;4912941;29;20036;-73
2022/09/09 02:11:16;;;;;;;89.43;50.17;;;;;;;;;;4913049;29;20477;-73
2022/09/09 02:13:44;;;;;;;88.50;50.00;;;;;;;;;;4912937;29;20056;-73
2022/09/09 02:16:15;;;;;;;88.43;49.63;;;;;;;;;;4912619;29;20107;-73
2022/09/09 02:18:54;;;;;;;85.93;48.83;;;;;;;;;;4913440;29;20477;-72
2022/09/09 02:21:21;;;;;;;93.10;48.28;;;;;;;;;;4913277;29;20051;-73
2022/09/09 02:23:49;;;;;;;83.63;48.78;;;;;;;;;;4913071;29;20035;-71
2022/09/09 02:26:20;;;;;;;84.40;49.78;;;;;;;;;;4919771;29;20106;-74
2022/09/09 02:28:46;;;;;;;80.97;47.97;;;;;;;;;;4922070;29;20032;-71
2022/09/09 02:31:14;;;;;;;79.32;45.60;;;;;;;;;;4924352;29;20032;-73
2022/09/09 02:33:42;;;;;;;84.60;48.22;;;;;;;;;;4926161;29;20043;-72
2022/09/09 02:36:09;;;;;;;85.35;48.13;;;;;;;;;;4926227;29;20036;-72
2022/09/09 02:38:38;;;;;;;75.20;43.65;;;;;;;;;;4927570;29;20032;-72
2022/09/09 02:41:03;;;;;;;85.07;45.22;;;;;;;;;;4922873;29;20494;-71
2022/09/09 02:43:37;;;;;;;82.43;45.08;;;;;;;;;;4929038;29;20024;-73
2022/09/09 02:46:09;;;;;;;75.90;42.78;;;;;;;;;;4918186;29;20024;-73
2022/09/09 02:48:39;;;;;;;84.47;43.85;;;;;;;;;;4917197;29;20040;-72
2022/09/09 02:51:10;;;;;;;79.82;42.90;;;;;;;;;;4914697;29;20032;-73
2022/09/09 02:53:44;;;;;;;79.40;41.85;;;;;;;;;;4914569;29;20074;-72
2022/09/09 02:56:19;;;;;;;76.68;40.05;;;;;;;;;;4914901;29;20133;-73
2022/09/09 02:58:46;;;;;;;81.57;40.65;;;;;;;;;;4914835;29;20024;-73
2022/09/09 03:01:12;;;;;;;65.47;39.10;;;;;;;;;;4914442;29;20067;-71
2022/09/09 03:03:39;;;;;;;77.85;43.05;;;;;;;;;;4915489;29;20031;-72
2022/09/09 03:06:05;;;;;;;76.65;44.47;;;;;;;;;;4914795;29;20474;-72
2022/09/09 03:08:31;;;;;;;96.78;44.75;;;;;;;;;;4916412;29;20051;-72
2022/09/09 03:11:01;;;;;;;74.80;42.67;;;;;;;;;;4914551;28;20039;-72
2022/09/09 03:13:27;;;;;;;97.03;43.30;;;;;;;;;;4914426;29;20428;-73
2022/09/09 03:15:53;;;;;;;82.65;43.30;;;;;;;;;;4914130;29;20094;-71
2022/09/09 03:18:19;;;;;;;76.72;43.00;;;;;;;;;;4914212;29;20067;-73
2022/09/09 03:20:48;;;;;;;77.85;43.70;;;;;;;;;;4914127;29;20032;-71
2022/09/09 03:23:14;;;;;;;74.55;43.47;;;;;;;;;;4914219;29;20452;-73
2022/09/09 03:25:40;;;;;;;75.97;43.58;;;;;;;;;;4914666;29;20067;-74
2022/09/09 03:28:06;;;;;;;71.32;41.97;;;;;;;;;;4997662;28;20444;-73
2022/09/09 03:30:32;;;;;;;68.57;39.97;;;;;;;;;;4914366;29;20028;-74
2022/09/09 03:32:58;;;;;;;73.95;40.97;;;;;;;;;;4914499;29;20051;-73
2022/09/09 03:35:24;;;;;;;68.25;41.22;;;;;;;;;;4914134;29;20032;-73
2022/09/09 03:37:50;;;;;;;67.85;40.72;;;;;;;;;;4915076;29;20056;-74
2022/09/09 03:40:16;;;;;;;67.90;39.50;;;;;;;;;;4915334;29;20024;-73
2022/09/09 03:42:42;;;;;;;67.07;40.03;;;;;;;;;;4914907;29;20029;-73
2022/09/09 03:45:10;;;;;;;62.53;38.20;;;;;;;;;;4915589;29;20021;-73
2022/09/09 03:47:36;;;;;;;62.45;38.25;;;;;;;;;;4914710;29;20386;-74
2022/09/09 03:50:03;;;;;;;59.75;36.65;;;;;;;;;;4914898;29;20493;-75
2022/09/09 03:52:30;;;;;;;55.58;36.42;;;;;;;;;;4913705;29;20565;-72
2022/09/09 03:54:56;;;;;;;57.80;35.90;;;;;;;;;;4915165;29;20113;-72
2022/09/09 03:57:22;;;;;;;57.08;36.63;;;;;;;;;;4914802;29;20047;-72
2022/09/09 03:59:48;;;;;;;56.17;35.40;;;;;;;;;;4914844;29;20028;-72
2022/09/09 04:02:15;;;;;;;53.38;33.90;;;;;;;;;;4996841;28;20035;-72
2022/09/09 04:04:41;;;;;;;49.08;31.85;;;;;;;;;;4914845;29;20119;-72
2022/09/09 04:07:07;;;;;;;45.92;30.83;;;;;;;;;;4916049;29;20521;-73
2022/09/09 04:09:33;;;;;;;51.22;32.95;;;;;;;;;;4916540;29;20032;-74
2022/09/09 04:11:59;;;;;;;51.45;32.72;;;;;;;;;;4997463;28;20107;-74
2022/09/09 04:14:28;;;;;;;48.80;33.10;;;;;;;;;;4998831;28;20082;-72
2022/09/09 04:16:55;;;;;;;50.30;33.50;;;;;;;;;;4915058;29;20031;-71
2022/09/09 04:19:21;;;;;;;45.80;31.58;;;;;;;;;;4996383;28;20040;-72
2022/09/09 04:21:51;;;;;;;45.72;28.75;;;;;;;;;;4915256;29;20429;-72
2022/09/09 04:24:17;;;;;;;45.47;31.92;;;;;;;;;;4977245;28;20032;-73
2022/09/09 04:26:43;;;;;;;44.35;28.90;;;;;;;;;;4914563;29;20035;-73
2022/09/09 04:29:09;;;;;;;44.75;29.20;;;;;;;;;;4916913;29;20036;-72
2022/09/09 04:31:35;;;;;;;41.22;28.02;;;;;;;;;;4918391;29;20028;-72
2022/09/09 04:34:04;;;;;;;39.95;28.77;;;;;;;;;;4921561;29;20039;-73
2022/09/09 04:36:31;;;;;;;42.55;28.05;;;;;;;;;;4928101;29;20047;-73
2022/09/09 04:38:57;;;;;;;39.53;27.17;;;;;;;;;;4924475;29;20024;-73
2022/09/09 04:41:23;;;;;;;38.42;25.65;;;;;;;;;;4914894;29;20024;-72
2022/09/09 04:43:49;;;;;;;39.47;26.35;;;;;;;;;;4915512;29;20028;-72
2022/09/09 04:46:18;;;;;;;36.10;25.27;;;;;;;;;;4914228;29;20147;-72
2022/09/09 04:48:45;;;;;;;37.85;26.23;;;;;;;;;;4914297;29;20035;-72
2022/09/09 04:51:12;;;;;;;34.60;24.33;;;;;;;;;;4997803;28;20033;-72
2022/09/09 04:53:40;;;;;;;35.28;24.42;;;;;;;;;;4914628;29;20028;-72
2022/09/09 04:56:09;;;;;;;35.85;24.20;;;;;;;;;;4914184;29;20050;-73
2022/09/09 04:58:36;;;;;;;36.85;24.38;;;;;;;;;;4997665;28;20062;-72
2022/09/09 05:01:04;;;;;;;40.53;25.73;;;;;;;;;;4914426;29;20470;-72
2022/09/09 05:03:29;;;;;;;35.30;24.15;;;;;;;;;;4930469;29;20469;-72
2022/09/09 05:06:02;;;;;;;32.80;21.75;;;;;;;;;;4933840;29;20028;-72
2022/09/09 05:08:29;;;;;;;35.17;23.48;;;;;;;;;;4916849;29;20039;-72
2022/09/09 05:10:55;;;;;;;42.70;24.27;;;;;;;;;;4914375;29;20033;-72
2022/09/09 05:13:22;;;;;;;31.70;22.73;;;;;;;;;;4914837;29;20641;-72
2022/09/09 05:15:55;;;;;;;32.97;21.98;;;;;;;;;;4997627;28;20020;-73
2022/09/09 05:18:22;;;;;;;30.92;22.52;;;;;;;;;;4913646;29;20040;-72
2022/09/09 05:20:48;;;;;;;31.88;21.80;;;;;;;;;;4914942;29;20020;-72
2022/09/09 05:23:15;;;;;;;29.58;21.05;;;;;;;;;;4994507;28;20401;-72
2022/09/09 05:25:41;;;;;;;33.00;22.80;;;;;;;;;;4914356;29;20042;-76
2022/09/09 05:28:07;;;;;;;33.78;22.27;;;;;;;;;;4916613;29;20555;-73
2022/09/09 05:30:33;;;;;;;31.25;21.25;;;;;;;;;;4915132;29;20118;-74
2022/09/09 05:32:59;;;;;;;29.80;21.42;;;;;;;;;;4916396;29;20028;-73
2022/09/09 05:35:25;;;;;;;29.05;20.08;;;;;;;;;;4913155;29;20035;-72
2022/09/09 05:37:51;;;;;;;31.42;20.10;;;;;;;;;;4916634;29;20035;-73
2022/09/09 05:40:18;;;;;;;31.08;20.55;;;;;;;;;;4995654;28;20131;-74
2022/09/09 05:42:44;;;;;;;26.60;19.95;;;;;;;;;;4915579;29;20020;-74
2022/09/09 05:45:10;;;;;;;26.58;18.05;;;;;;;;;;4996392;28;20020;-74
2022/09/09 05:47:37;;;;;;;26.83;18.13;;;;;;;;;;4913935;29;20029;-73
2022/09/09 05:50:03;;;;;;;29.77;18.45;;;;;;;;;;4914399;28;20028;-74
2022/09/09 05:52:29;;;;;;;28.15;18.83;;;;;;;;;;4915116;29;20043;-73
2022/09/09 05:54:56;;;;;;;24.25;17.65;;;;;;;;;;4916513;29;20032;-75
2022/09/09 05:57:22;;;;;;;27.20;17.77;;;;;;;;;;4914124;29;20052;-74
2022/09/09 05:59:49;;;;;;;30.67;18.67;;;;;;;;;;4996063;28;20489;-73
2022/09/09 06:02:15;;;;;;;26.75;17.33;;;;;;;;;;4914362;29;20024;-73
2022/09/09 06:04:41;;;;;;;24.40;16.85;;;;;;;;;;4913305;29;20028;-73
2022/09/09 06:07:07;;;;;;;25.05;15.30;;;;;;;;;;4913137;29;20035;-72
2022/09/09 06:09:34;;;;;;;24.02;17.42;;;;;;;;;;4916715;29;20065;-74
2022/09/09 06:11:59;;;;;;;24.58;16.63;;;;;;;;;;4998128;28;20024;-72
2022/09/09 06:14:26;;;;;;;24.25;15.38;;;;;;;;;;4912757;29;20040;-72
2022/09/09 06:16:52;;;;;;;18.55;14.20;;;;;;;;;;4912910;29;20111;-74
2022/09/09 06:19:20;;;;;;;25.95;15.27;;;;;;;;;;4914915;29;20478;-75
2022/09/09 06:21:47;;;;;;;22.98;14.68;;;;;;;;;;4912775;29;20048;-74
2022/09/09 06:24:17;;;;;;;17.40;13.18;;;;;;;;;;4912541;29;20540;-72
2022/09/09 06:26:43;;;;;;;19.83;12.65;;;;;;;;;;4913357;29;20043;-72
2022/09/09 06:29:09;;;;;;;25.35;13.40;;;;;;;;;;4914351;29;20082;-73
2022/09/09 06:31:36;;;;;;;18.67;12.30;;;;;;;;;;4912867;29;20441;-73
2022/09/09 06:34:02;;;;;;;21.10;13.15;;;;;;;;;;4913372;29;20032;-74
2022/09/09 06:36:30;;;;;;;18.83;11.25;;;;;;;;;;4913299;29;20170;-73
2022/09/09 06:38:56;;;;;;;18.75;11.30;;;;;;;;;;4913814;29;20031;-72
2022/09/09 06:41:23;;;;;;;19.10;11.70;;;;;;;;;;4914901;29;20131;-73
2022/09/09 06:43:49;;;;;;;20.08;11.10;;;;;;;;;;4996331;28;20020;-74
2022/09/09 06:46:16;;;;;;;17.88;9.85;;;;;;;;;;4913068;29;20020;-73
2022/09/09 06:48:44;;;;;;;17.13;8.77;;;;;;;;;;4912691;29;20086;-73
2022/09/09 06:51:14;;;;;;;15.73;8.88;;;;;;;;;;4913481;29;20032;-74
2022/09/09 06:53:40;;;;;;;14.38;7.43;;;;;;;;;;4913380;29;20071;-74
2022/09/09 06:56:13;;;;;;;16.50;6.50;;;;;;;;;;4914091;29;20043;-74
2022/09/09 06:58:43;;;;;;;13.65;6.55;;;;;;;;;;4994491;28;20032;-73
2022/09/09 07:01:12;;;;;;;15.60;6.38;;;;;;;;;;4911955;29;20094;-73
2022/09/09 07:03:42;;;;;;;18.02;6.80;;;;;;;;;;4912928;29;20049;-74
2022/09/09 07:06:09;;;;;;;11.10;5.57;;;;;;;;;;4993290;28;20055;-73
2022/09/09 07:08:35;;;;;;;11.85;6.15;;;;;;;;;;4993452;28;20433;-74
2022/09/09 07:11:05;;;;;;;12.88;6.05;;;;;;;;;;4914204;29;20032;-74
2022/09/09 07:13:31;;;;;;;15.07;6.40;;;;;;;;;;4912643;29;20106;-72
2022/09/09 07:16:03;;;;;;;13.02;5.70;;;;;;;;;;4912976;29;20102;-73
2022/09/09 07:18:30;;;;;;;16.55;6.30;;;;;;;;;;4913716;29;20028;-74
2022/09/09 07:20:56;;;;;;;15.32;6.43;;;;;;;;;;4993065;28;20024;-73
2022/09/09 07:23:22;;;;;;;13.13;5.70;;;;;;;;;;4911546;29;20126;-73
2022/09/09 07:25:48;;;;;;;13.90;5.70;;;;;;;;;;4911813;29;20025;-74
2022/09/09 07:28:15;;;;;;;13.10;6.28;;;;;;;;;;4915358;29;20039;-72
2022/09/09 07:30:42;;;;;;;16.85;6.35;;;;;;;;;;4914485;29;20068;-74
2022/09/09 07:33:09;;;;;;;10.50;4.95;;;;;;;;;;4915545;29;20030;-73
2022/09/09 07:35:36;;;;;;;13.63;5.70;;;;;;;;;;4915292;29;20035;-74
2022/09/09 07:38:06;;;;;;;14.93;5.43;;;;;;;;;;4915415;29;20096;-75
2022/09/09 07:40:32;;;;;;;12.95;5.18;;;;;;;;;;4998166;28;20025;-73
2022/09/09 07:42:59;;;;;;;10.13;4.63;;;;;;;;;;4915184;29;20095;-72
2022/09/09 07:45:25;;;;;;;12.52;4.70;;;;;;;;;;4914561;29;20024;-71
2022/09/09 07:47:52;;;;;;;15.32;4.80;;;;;;;;;;4914551;29;20513;-72
2022/09/09 07:50:18;;;;;;;13.45;5.60;;;;;;;;;;4914327;29;20043;-72
2022/09/09 07:52:44;;;;;;;23.60;7.03;;;;;;;;;;4916279;28;20028;-77
2022/09/09 07:55:10;;;;;;;20.45;5.75;;;;;;;;;;4914925;29;20043;-71
2022/09/09 07:57:36;;;;;;;13.15;5.10;;;;;;;;;;4914563;29;20039;-72
2022/09/09 08:00:03;;;;;;;14.02;5.32;;;;;;;;;;4914863;28;20458;-72
2022/09/09 08:02:29;;;;;;;11.35;4.72;;;;;;;;;;4916105;29;20028;-73
2022/09/09 08:04:56;;;;;;;9.82;4.30;;;;;;;;;;4914827;29;20053;-73
2022/09/09 08:07:23;;;;;;;11.55;5.35;;;;;;;;;;4916017;29;20020;-73
2022/09/09 08:09:49;;;;;;;16.67;5.45;;;;;;;;;;4923352;28;20032;-73
2022/09/09 08:12:15;;;;;;;14.77;4.78;;;;;;;;;;4922167;29;20060;-73
2022/09/09 08:14:41;;;;;;;11.85;4.78;;;;;;;;;;4919852;29;20036;-73
2022/09/09 08:17:07;;;;;;;14.95;4.55;;;;;;;;;;4915328;29;20028;-73
2022/09/09 08:19:35;;;;;;;15.23;4.68;;;;;;;;;;4929520;28;20032;-73
2022/09/09 08:22:02;;;;;;;10.38;4.32;;;;;;;;;;4933579;29;20031;-74
2022/09/09 08:24:28;;;;;;;16.17;5.47;;;;;;;;;;4933883;29;20507;-73
2022/09/09 08:26:54;;;;;;;16.73;4.80;;;;;;;;;;4933149;29;20027;-74
2022/09/09 08:29:20;;;;;;;11.45;4.40;;;;;;;;;;4934283;29;20146;-72
2022/09/09 08:31:48;;;;;;;9.98;5.07;;;;;;;;;;4933600;28;20485;-72
2022/09/09 08:34:14;;;;;;;10.57;4.15;;;;;;;;;;4933430;28;20031;-73
2022/09/09 08:36:45;;;;;;;8.68;3.85;;;;;;;;;;4933371;29;20432;-74
2022/09/09 08:39:12;;;;;;;10.02;4.53;;;;;;;;;;4934667;29;20039;-72
2022/09/09 08:41:47;;;;;;;11.00;4.10;;;;;;;;;;4934355;29;20474;-73
2022/09/09 08:44:27;;;;;;;10.55;3.72;;;;;;;;;;4935001;29;20044;-74
2022/09/09 08:46:55;;;;;;;5.93;3.67;;;;;;;;;;4932948;28;20079;-72
2022/09/09 08:49:21;;;;;;;12.88;4.07;;;;;;;;;;4934273;28;20038;-74
2022/09/09 08:51:49;;;;;;;8.93;4.03;;;;;;;;;;4933573;29;20099;-73
2022/09/09 08:54:15;;;;;;;9.35;3.50;;;;;;;;;;4933160;29;20626;-72
2022/09/09 08:56:41;;;;;;;10.18;3.65;;;;;;;;;;4935069;29;20083;-72
2022/09/09 08:59:11;;;;;;;10.10;3.70;;;;;;;;;;4933540;28;20116;-73
2022/09/09 09:01:56;;;;;;;10.27;3.85;;;;;;;;;;4933122;29;20484;-71
2022/09/09 09:04:22;;;;;;;;;;;;;;;;;;4934735;29;20422;-73
2022/09/09 09:06:54;;;;;;;11.15;3.53;;;;;;;;;;4935940;29;19949;-72
2022/09/09 09:09:36;;;;;;;11.02;3.53;;;;;;;;;;4933966;29;20663;-73
2022/09/09 09:12:03;;;;;;;6.00;2.83;;;;;;;;;;4937870;29;20032;-74
2022/09/09 09:14:30;;;;;;;5.68;3.00;;;;;;;;;;4934792;29;20067;-72
2022/09/09 09:16:56;;;;;;;8.63;2.88;;;;;;;;;;4936438;29;20024;-73
2022/09/09 09:19:24;;;;;;;6.75;2.67;;;;;;;;;;5003186;28;20123;-73
2022/09/09 09:21:59;;;;;;;9.70;3.22;;;;;;;;;;4999211;28;20162;-74
2022/09/09 09:24:42;;;;;;;13.77;3.05;;;;;;;;;;4932884;29;20067;-73
2022/09/09 09:27:15;;;;;;;9.68;3.03;;;;;;;;;;4932617;29;20477;-73
2022/09/09 09:29:43;;;;;;;9.40;2.78;;;;;;;;;;4998845;28;20070;-71
2022/09/09 09:32:10;;;;;;;10.30;2.75;;;;;;;;;;4932583;28;20481;-72
2022/09/09 09:34:36;;;;;;;10.25;2.97;;;;;;;;;;4933853;29;20052;-75
2022/09/09 09:37:02;;;;;;;8.00;2.78;;;;;;;;;;4935336;29;20031;-76
2022/09/09 09:39:42;;;;;;;8.70;2.67;;;;;;;;;;5001534;28;20032;-74
2022/09/09 09:42:15;;;;;;;9.13;2.72;;;;;;;;;;4934936;28;20366;-75
2022/09/09 09:44:44;;;;;;;12.00;3.20;;;;;;;;;;4932930;29;20110;-73
2022/09/09 09:47:13;;;;;;;8.77;2.58;;;;;;;;;;4932460;29;20032;-72
2022/09/09 09:49:39;;;;;;;6.97;2.17;;;;;;;;;;4931347;29;20023;-73
2022/09/09 09:52:07;;;;;;;4.68;1.60;;;;;;;;;;4931745;29;20102;-73
2022/09/09 09:54:35;;;;;;;10.07;2.50;;;;;;;;;;4931662;29;20035;-73
2022/09/09 09:57:15;;;;;;;6.20;1.83;;;;;;;;;;4997077;28;20035;-73
2022/09/09 09:59:41;;;;;;;7.03;1.75;;;;;;;;;;4931795;29;20393;-74
2022/09/09 10:02:13;;;;;;;3.83;1.40;;;;;;;;;;4932404;28;20028;-74
2022/09/09 10:04:39;;;;;;;4.10;1.50;;;;;;;;;;5001068;28;20032;-75
2022/09/09 10:07:17;;;;;;;7.15;1.33;;;;;;;;;;4936175;29;20070;-73
2022/09/09 10:09:43;;;;;;;4.65;1.25;;;;;;;;;;5003254;28;20035;-73
2022/09/09 10:12:22;;;;;;;5.97;1.30;;;;;;;;;;4931949;29;20031;-74
2022/09/09 10:15:00;;;;;;;2.72;0.85;;;;;;;;;;4932204;28;20035;-73
2022/09/09 10:17:32;;;;;;;7.43;2.28;;;;;;;;;;4931674;29;20481;-73
2022/09/09 10:19:58;;;;;;;16.98;6.00;;;;;;;;;;4932216;29;20028;-72
2022/09/09 10:22:28;;;;;;;16.67;6.57;;;;;;;;;;4932494;29;20481;-71
2022/09/09 10:25:13;;;;;;;11.32;2.58;;;;;;;;;;4931910;29;20131;-70
2022/09/09 10:27:44;;;;;;;5.60;1.48;;;;;;;;;;4931502;29;20478;-73
2022/09/09 10:30:10;;;;;;;8.27;3.47;;;;;;;;;;4998040;28;20122;-72
2022/09/09 10:32:39;;;;;;;9.07;3.33;;;;;;;;;;4933094;29;20091;-73
2022/09/09 10:35:13;;;;;;;10.68;2.78;;;;;;;;;;4931806;28;20055;-73
2022/09/09 10:37:45;;;;;;;7.10;2.47;;;;;;;;;;4932431;29;20452;-72
2022/09/09 10:40:30;;;;;;;5.90;1.75;;;;;;;;;;4933473;29;20342;-72
2022/09/09 10:43:00;;;;;;;12.98;3.13;;;;;;;;;;4931547;29;20034;-72
2022/09/09 10:45:33;;;;;;;7.80;2.13;;;;;;;;;;4931537;29;20099;-72
2022/09/09 10:48:08;;;;;;;5.18;1.70;;;;;;;;;;4931553;29;20374;-72
2022/09/09 10:50:43;;;;;;;7.35;1.88;;;;;;;;;;4937135;29;20060;-72
2022/09/09 10:53:15;;;;;;;4.95;1.92;;;;;;;;;;4999040;28;20472;-73
2022/09/09 10:55:46;;;;;;;5.15;1.67;;;;;;;;;;4933724;28;20087;-74
2022/09/09 10:58:18;;;;;;;5.38;1.45;;;;;;;;;;4933662;29;20039;-73
2022/09/09 11:00:47;;;;;;;6.10;2.10;;;;;;;;;;5001437;28;20476;-73
2022/09/09 11:03:20;;;;;;;6.88;1.83;;;;;;;;;;4934910;29;20032;-72
2022/09/09 11:05:52;;;;;;;9.30;1.67;;;;;;;;;;5000335;28;20051;-74
2022/09/09 11:08:19;;;;;;;4.35;1.92;;;;;;;;;;4934660;29;20102;-73
2022/09/09 11:11:03;;;;;;;4.95;1.42;;;;;;;;;;4936906;28;20115;-73
2022/09/09 11:13:51;;;;;;;4.53;1.73;;;;;;;;;;4935020;29;20023;-73
2022/09/09 11:16:27;;;;;;;9.70;1.88;;;;;;;;;;4934628;29;20493;-73
2022/09/09 11:18:57;;;;;;;4.88;1.55;;;;;;;;;;4935960;28;20400;-72
2022/09/09 11:21:31;;;;;;;5.55;1.50;;;;;;;;;;4938054;29;20146;-73
2022/09/09 11:24:04;;;;;;;9.40;1.95;;;;;;;;;;4934900;29;20494;-72
2022/09/09 11:26:39;;;;;;;5.47;1.70;;;;;;;;;;4934634;29;20020;-71
2022/09/09 11:29:11;;;;;;;5.80;1.80;;;;;;;;;;4935483;29;20477;-73
2022/09/09 11:31:56;;;;;;;5.00;1.65;;;;;;;;;;4937779;29;20058;-72
2022/09/09 11:34:34;;;;;;;6.28;1.60;;;;;;;;;;5005156;28;20032;-72
2022/09/09 11:37:09;;;;;;;5.13;1.58;;;;;;;;;;4934673;28;20032;-72
2022/09/09 11:39:54;;;;;;;6.50;1.60;;;;;;;;;;4935613;29;20028;-73
2022/09/09 11:42:20;;;;;;;;;;;;;;;;;;4936998;28;20555;-74
2022/09/09 11:44:46;;;;;;;6.72;1.45;;;;;;;;;;4935034;29;19911;-73
2022/09/09 11:47:24;;;;;;;6.78;1.30;;;;;;;;;;4934331;29;20031;-73
2022/09/09 11:49:50;;;;;;;8.20;1.48;;;;;;;;;;4936394;29;20069;-74
2022/09/09 11:52:25;;;;;;;6.63;1.40;;;;;;;;;;4935206;29;20134;-73
2022/09/09 11:54:51;;;;;;;6.55;1.23;;;;;;;;;;4934196;28;20031;-73
2022/09/09 11:57:26;;;;;;;5.20;1.55;;;;;;;;;;4934438;29;20055;-73
2022/09/09 11:59:52;;;;;;;6.60;1.50;;;;;;;;;;4934165;29;20023;-73
2022/09/09 12:02:30;;;;;;;4.68;1.48;;;;;;;;;;4934525;29;20470;-71
2022/09/09 12:05:11;;;;;;;7.10;1.63;;;;;;;;;;4945219;28;20043;-74
2022/09/09 12:07:42;;;;;;;6.00;1.73;;;;;;;;;;5035016;28;20025;-73
2022/09/09 12:10:08;;;;;;;4.85;1.10;;;;;;;;;;5033954;28;20025;-73
2022/09/09 12:12:36;;;;;;;6.30;1.45;;;;;;;;;;5033499;28;20026;-73
2022/09/09 12:15:08;;;;;;;5.15;1.40;;;;;;;;;;5034153;28;20026;-73
2022/09/09 12:17:50;;;;;;;7.55;1.30;;;;;;;;;;5033668;28;20021;-73
2022/09/09 12:20:16;;;;;;;6.90;1.55;;;;;;;;;;5034960;28;20029;-74
2022/09/09 12:22:54;;;;;;;6.20;1.23;;;;;;;;;;5036209;28;20155;-73
2022/09/09 12:25:28;;;;;;;8.82;1.40;;;;;;;;;;5043292;22;20075;-75
2022/09/09 12:28:11;;;;;;;4.60;1.27;;;;;;;;;;4970673;28;20031;-76
2022/09/09 12:30:46;;;;;;;8.77;1.77;;;;;;;;;;4956318;29;20048;-75
2022/09/09 12:33:13;;;;;;;7.93;2.22;;;;;;;;;;4951653;29;20123;-76
2022/09/09 12:35:40;;;;;;;9.20;1.92;;;;;;;;;;4934980;29;20091;-76
2022/09/09 12:38:09;;;;;;;6.00;2.35;;;;;;;;;;4934254;28;20488;-74
2022/09/09 12:40:35;;;;;;;6.55;2.17;;;;;;;;;;4934534;29;20020;-76
2022/09/09 12:43:02;;;;;;;5.80;1.70;;;;;;;;;;4935698;28;20081;-76
2022/09/09 12:45:32;;;;;;;9.57;1.75;;;;;;;;;;4935297;28;20028;-74
2022/09/09 12:48:04;;;;;;;10.95;1.60;;;;;;;;;;4934131;28;20035;-75
2022/09/09 12:50:32;;;;;;;4.65;1.70;;;;;;;;;;4934830;28;20032;-76
2022/09/09 12:53:18;;;;;;;7.45;1.73;;;;;;;;;;4934600;28;20024;-76
2022/09/09 12:55:51;;;;;;;11.52;2.28;;;;;;;;;;4944799;28;20404;-76
2022/09/09 12:58:18;;;;;;;8.55;2.35;;;;;;;;;;4934337;29;20024;-75
2022/09/09 13:00:56;;;;;;;10.15;2.50;;;;;;;;;;4934540;28;20115;-77
2022/09/09 13:03:23;;;;;;;7.15;1.60;;;;;;;;;;4935215;29;20024;-76
2022/09/09 13:05:49;;;;;;;13.88;2.05;;;;;;;;;;4935915;28;20063;-75
2022/09/09 13:08:22;;;;;;;8.60;1.75;;;;;;;;;;4935609;28;20034;-75
2022/09/09 13:10:54;;;;;;;7.10;2.00;;;;;;;;;;4933516;28;20085;-76
2022/09/09 13:13:26;;;;;;;14.85;2.08;;;;;;;;;;4934867;28;20472;-76
2022/09/09 13:15:56;;;;;;;6.03;2.25;;;;;;;;;;4935504;28;20083;-76
2022/09/09 13:18:24;;;;;;;8.20;2.42;;;;;;;;;;4935262;28;20038;-76
2022/09/09 13:20:51;;;;;;;11.10;2.40;;;;;;;;;;4938151;28;20023;-76
2022/09/09 13:23:18;;;;;;;10.20;2.42;;;;;;;;;;4936396;29;20026;-76
2022/09/09 13:25:53;;;;;;;18.17;4.25;;;;;;;;;;4937225;28;20405;-76
2022/09/09 13:28:21;;;;;;;13.15;4.13;;;;;;;;;;4936184;28;20370;-74
2022/09/09 13:30:58;;;;;;;28.55;5.07;;;;;;;;;;4934051;28;20027;-74
2022/09/09 13:33:29;;;;;;;15.52;3.67;;;;;;;;;;4934684;29;20047;-75
2022/09/09 13:35:59;;;;;;;13.45;3.60;;;;;;;;;;4934144;28;20404;-76
2022/09/09 13:38:26;;;;;;;12.00;3.83;;;;;;;;;;4935267;28;20121;-75
2022/09/09 13:40:54;;;;;;;14.50;3.55;;;;;;;;;;4935331;28;20027;-75
2022/09/09 13:43:22;;;;;;;11.38;3.63;;;;;;;;;;4937784;29;20027;-75
2022/09/09 13:45:59;;;;;;;8.75;2.53;;;;;;;;;;4937909;28;20077;-77
2022/09/09 13:48:25;;;;;;;7.82;2.00;;;;;;;;;;4935285;28;20481;-76
2022/09/09 13:50:55;;;;;;;6.75;1.85;;;;;;;;;;4936982;28;20024;-77
2022/09/09 13:53:21;;;;;;;6.60;1.70;;;;;;;;;;4940726;28;20388;-78
2022/09/09 13:55:47;;;;;;;5.82;1.67;;;;;;;;;;4940215;28;20122;-76
2022/09/09 13:58:20;;;;;;;4.63;1.50;;;;;;;;;;4938271;28;20068;-75
2022/09/09 14:00:46;;;;;;;34.85;20.17;;;;;;;;;;4946050;28;20035;-77
2022/09/09 14:03:12;;;;;;;7.30;3.20;;;;;;;;;;4940221;28;20020;-75
2022/09/09 14:05:38;;;;;;;17.65;9.60;;;;;;;;;;4947283;28;20110;-75
2022/09/09 14:08:06;;;;;;;12.07;3.50;;;;;;;;;;4948652;28;20047;-76
2022/09/09 14:10:32;;;;;;;9.60;3.03;;;;;;;;;;4950523;28;20032;-77
2022/09/09 14:12:58;;;;;;;10.93;4.00;;;;;;;;;;4950309;28;20032;-74
2022/09/09 14:15:24;;;;;;;9.57;3.17;;;;;;;;;;4951377;28;20031;-76
2022/09/09 14:17:52;;;;;;;10.32;3.65;;;;;;;;;;4950281;28;20038;-75
2022/09/09 14:20:19;;;;;;;12.52;4.28;;;;;;;;;;4950679;29;20027;-75
2022/09/09 14:22:45;;;;;;;11.50;4.13;;;;;;;;;;4950763;28;20020;-74
2022/09/09 14:25:13;;;;;;;10.55;3.85;;;;;;;;;;4947962;28;20035;-75
2022/09/09 14:27:39;;;;;;;11.00;3.75;;;;;;;;;;4950123;28;20100;-76
2022/09/09 14:30:05;;;;;;;14.05;3.85;;;;;;;;;;4951853;28;20063;-76
2022/09/09 14:32:31;;;;;;;11.57;3.75;;;;;;;;;;4943969;28;20119;-76
2022/09/09 14:34:57;;;;;;;15.98;4.10;;;;;;;;;;4933028;28;20063;-76
2022/09/09 14:37:23;;;;;;;13.20;5.55;;;;;;;;;;4935539;28;20035;-74
2022/09/09 14:39:50;;;;;;;21.63;11.45;;;;;;;;;;4939413;29;20032;-76